sensor_id;sensor_type;location;lat;lon;timestamp;P1;durP1;ratioP1;P2;durP2;ratioP2
8480;SDS011;4277;51.354;6.740;2022-09-09T00:04:46;1.43;;;0.70;;
8480;SDS011;4277;51.354;6.740;2022-09-09T00:07:15;1.27;;;0.60;;
8480;SDS011;4277;51.354;6.740;2022-09-09T00:14:47;1.63;;;0.70;;
8480;SDS011;4277;51.354;6.740;2022-09-09T00:20:14;3.23;;;0.90;;
8480;SDS011;4277;51.354;6.740;2022-09-09T00:22:52;1.67;;;0.80;;
8480;SDS011;4277;51.354;6.740;2022-09-09T00:25:28;3.47;;;1.17;;
8480;SDS011;4277;51.354;6.740;2022-09-09T00:27:57;1.80;;;0.80;;
8480;SDS011;4277;51.354;6.740;2022-09-09T00:30:24;3.67;;;0.80;;
8480;SDS011;4277;51.354;6.740;2022-09-09T00:32:55;3.53;;;0.90;;
8480;SDS011;4277;51.354;6.740;2022-09-09T00:35:24;2.30;;;0.90;;
8480;SDS011;4277;51.354;6.740;2022-09-09T00:37:54;2.53;;;0.90;;
8480;SDS011;4277;51.354;6.740;2022-09-09T00:40:24;3.00;;;1.10;;
8480;SDS011;4277;51.354;6.740;2022-09-09T00:42:58;2.03;;;0.70;;
8480;SDS011;4277;51.354;6.740;2022-09-09T00:51:17;1.27;;;0.93;;
8480;SDS011;4277;51.354;6.740;2022-09-09T00:56:20;1.70;;;0.80;;
8480;SDS011;4277;51.354;6.740;2022-09-09T00:58:53;2.93;;;1.17;;
8480;SDS011;4277;51.354;6.740;2022-09-09T01:01:21;3.07;;;1.10;;
8480;SDS011;4277;51.354;6.740;2022-09-09T01:03:54;2.70;;;1.07;;
8480;SDS011;4277;51.354;6.740;2022-09-09T01:16:58;2.00;;;1.30;;
8480;SDS011;4277;51.354;6.740;2022-09-09T01:27:51;3.17;;;1.33;;
8480;SDS011;4277;51.354;6.740;2022-09-09T01:30:19;3.00;;;1.30;;
8480;SDS011;4277;51.354;6.740;2022-09-09T01:32:50;1.63;;;1.00;;
8480;SDS011;4277;51.354;6.740;2022-09-09T01:37:42;2.77;;;1.30;;
8480;SDS011;4277;51.354;6.740;2022-09-09T01:40:08;1.67;;;1.20;;
8480;SDS011;4277;51.354;6.740;2022-09-09T01:42:34;1.67;;;1.30;;
8480;SDS011;4277;51.354;6.740;2022-09-09T01:45:01;3.07;;;1.40;;
8480;SDS011;4277;51.354;6.740;2022-09-09T01:47:27;3.07;;;1.40;;
8480;SDS011;4277;51.354;6.740;2022-09-09T01:49:53;2.13;;;1.37;;
8480;SDS011;4277;51.354;6.740;2022-09-09T01:52:19;1.50;;;1.30;;
8480;SDS011;4277;51.354;6.740;2022-09-09T01:54:45;1.73;;;1.20;;
8480;SDS011;4277;51.354;6.740;2022-09-09T02:04:52;2.97;;;1.30;;
8480;SDS011;4277;51.354;6.740;2022-09-09T02:07:38;1.83;;;1.27;;
8480;SDS011;4277;51.354;6.740;2022-09-09T02:12:38;1.87;;;1.20;;
8480;SDS011;4277;51.354;6.740;2022-09-09T02:15:07;1.93;;;1.23;;
8480;SDS011;4277;51.354;6.740;2022-09-09T02:17:36;1.73;;;1.27;;
8480;SDS011;4277;51.354;6.740;2022-09-09T02:20:05;2.90;;;1.27;;
8480;SDS011;4277;51.354;6.740;2022-09-09T02:22:33;2.37;;;1.30;;
8480;SDS011;4277;51.354;6.740;2022-09-09T02:25:00;4.17;;;1.70;;
8480;SDS011;4277;51.354;6.740;2022-09-09T02:27:26;4.97;;;1.30;;
8480;SDS011;4277;51.354;6.740;2022-09-09T02:29:53;3.13;;;1.30;;
8480;SDS011;4277;51.354;6.740;2022-09-09T02:32:21;5.43;;;1.30;;
8480;SDS011;4277;51.354;6.740;2022-09-09T02:34:49;3.03;;;1.30;;
8480;SDS011;4277;51.354;6.740;2022-09-09T02:37:17;2.97;;;1.03;;
8480;SDS011;4277;51.354;6.740;2022-09-09T02:39:44;2.90;;;1.00;;
8480;SDS011;4277;51.354;6.740;2022-09-09T02:42:10;3.70;;;1.50;;
8480;SDS011;4277;51.354;6.740;2022-09-09T02:44:36;6.23;;;1.30;;
8480;SDS011;4277;51.354;6.740;2022-09-09T02:49:50;3.10;;;1.20;;
8480;SDS011;4277;51.354;6.740;2022-09-09T02:52:24;4.87;;;1.20;;
8480;SDS011;4277;51.354;6.740;2022-09-09T02:54:54;3.90;;;1.00;;
8480;SDS011;4277;51.354;6.740;2022-09-09T02:57:23;5.10;;;1.57;;
8480;SDS011;4277;51.354;6.740;2022-09-09T02:59:51;3.77;;;1.37;;
8480;SDS011;4277;51.354;6.740;2022-09-09T03:02:17;3.33;;;1.30;;
8480;SDS011;4277;51.354;6.740;2022-09-09T03:04:57;3.80;;;1.00;;
8480;SDS011;4277;51.354;6.740;2022-09-09T03:07:23;4.50;;;1.40;;
8480;SDS011;4277;51.354;6.740;2022-09-09T03:09:49;3.10;;;1.30;;
8480;SDS011;4277;51.354;6.740;2022-09-09T03:12:15;4.17;;;1.37;;
8480;SDS011;4277;51.354;6.740;2022-09-09T03:14:41;2.63;;;1.30;;
8480;SDS011;4277;51.354;6.740;2022-09-09T03:17:10;5.27;;;1.33;;
8480;SDS011;4277;51.354;6.740;2022-09-09T03:19:36;4.17;;;1.40;;
8480;SDS011;4277;51.354;6.740;2022-09-09T03:22:03;3.80;;;1.10;;
8480;SDS011;4277;51.354;6.740;2022-09-09T03:24:32;5.20;;;1.63;;
8480;SDS011;4277;51.354;6.740;2022-09-09T03:26:58;3.70;;;1.33;;
8480;SDS011;4277;51.354;6.740;2022-09-09T03:29:24;3.63;;;1.20;;
8480;SDS011;4277;51.354;6.740;2022-09-09T03:31:50;4.30;;;1.40;;
8480;SDS011;4277;51.354;6.740;2022-09-09T03:34:16;4.03;;;1.03;;
8480;SDS011;4277;51.354;6.740;2022-09-09T03:36:42;2.00;;;1.10;;
8480;SDS011;4277;51.354;6.740;2022-09-09T03:39:08;5.70;;;1.43;;
8480;SDS011;4277;51.354;6.740;2022-09-09T03:41:34;3.73;;;1.40;;
8480;SDS011;4277;51.354;6.740;2022-09-09T03:44:00;2.30;;;1.30;;
8480;SDS011;4277;51.354;6.740;2022-09-09T03:46:26;7.43;;;1.30;;
8480;SDS011;4277;51.354;6.740;2022-09-09T03:48:52;5.00;;;1.40;;
8480;SDS011;4277;51.354;6.740;2022-09-09T03:51:18;3.10;;;1.33;;
8480;SDS011;4277;51.354;6.740;2022-09-09T03:53:44;3.57;;;1.37;;
8480;SDS011;4277;51.354;6.740;2022-09-09T03:56:10;3.00;;;1.40;;
8480;SDS011;4277;51.354;6.740;2022-09-09T03:58:37;3.43;;;1.27;;
8480;SDS011;4277;51.354;6.740;2022-09-09T04:01:04;4.00;;;1.50;;
8480;SDS011;4277;51.354;6.740;2022-09-09T04:03:31;3.00;;;1.10;;
8480;SDS011;4277;51.354;6.740;2022-09-09T04:05:58;4.80;;;1.50;;
8480;SDS011;4277;51.354;6.740;2022-09-09T04:08:24;4.67;;;1.40;;
8480;SDS011;4277;51.354;6.740;2022-09-09T04:10:51;3.83;;;1.20;;
8480;SDS011;4277;51.354;6.740;2022-09-09T04:13:17;3.30;;;1.40;;
8480;SDS011;4277;51.354;6.740;2022-09-09T04:15:50;4.13;;;1.40;;
8480;SDS011;4277;51.354;6.740;2022-09-09T04:18:16;4.87;;;1.50;;
8480;SDS011;4277;51.354;6.740;2022-09-09T04:20:42;6.13;;;1.60;;
8480;SDS011;4277;51.354;6.740;2022-09-09T04:23:08;4.37;;;1.30;;
8480;SDS011;4277;51.354;6.740;2022-09-09T04:25:34;4.83;;;1.70;;
8480;SDS011;4277;51.354;6.740;2022-09-09T04:28:00;3.67;;;1.30;;
8480;SDS011;4277;51.354;6.740;2022-09-09T04:30:27;6.10;;;1.47;;
8480;SDS011;4277;51.354;6.740;2022-09-09T04:32:53;5.43;;;1.40;;
8480;SDS011;4277;51.354;6.740;2022-09-09T04:35:19;4.73;;;1.30;;
8480;SDS011;4277;51.354;6.740;2022-09-09T04:37:45;3.57;;;1.23;;
8480;SDS011;4277;51.354;6.740;2022-09-09T04:40:11;3.70;;;1.53;;
8480;SDS011;4277;51.354;6.740;2022-09-09T04:42:37;4.37;;;1.67;;
8480;SDS011;4277;51.354;6.740;2022-09-09T04:45:04;5.60;;;1.40;;
8480;SDS011;4277;51.354;6.740;2022-09-09T04:47:31;7.87;;;1.40;;
8480;SDS011;4277;51.354;6.740;2022-09-09T04:49:57;5.00;;;1.57;;
8480;SDS011;4277;51.354;6.740;2022-09-09T04:52:23;5.37;;;1.50;;
8480;SDS011;4277;51.354;6.740;2022-09-09T04:54:49;4.27;;;1.50;;
8480;SDS011;4277;51.354;6.740;2022-09-09T04:57:15;5.63;;;1.77;;
8480;SDS011;4277;51.354;6.740;2022-09-09T04:59:41;6.90;;;1.63;;
8480;SDS011;4277;51.354;6.740;2022-09-09T05:02:08;5.43;;;1.67;;
8480;SDS011;4277;51.354;6.740;2022-09-09T05:04:35;5.47;;;1.63;;
8480;SDS011;4277;51.354;6.740;2022-09-09T05:07:01;3.93;;;1.93;;
8480;SDS011;4277;51.354;6.740;2022-09-09T05:09:27;5.40;;;1.50;;
8480;SDS011;4277;51.354;6.740;2022-09-09T05:11:53;5.43;;;1.63;;
8480;SDS011;4277;51.354;6.740;2022-09-09T05:14:18;6.87;;;1.77;;
8480;SDS011;4277;51.354;6.740;2022-09-09T05:16:45;7.17;;;1.80;;
8480;SDS011;4277;51.354;6.740;2022-09-09T05:19:12;5.10;;;1.80;;
8480;SDS011;4277;51.354;6.740;2022-09-09T05:21:38;6.43;;;1.60;;
8480;SDS011;4277;51.354;6.740;2022-09-09T05:24:04;5.90;;;2.10;;
8480;SDS011;4277;51.354;6.740;2022-09-09T05:26:30;7.20;;;1.60;;
8480;SDS011;4277;51.354;6.740;2022-09-09T05:28:57;5.33;;;2.10;;
8480;SDS011;4277;51.354;6.740;2022-09-09T05:31:25;5.87;;;1.57;;
8480;SDS011;4277;51.354;6.740;2022-09-09T05:33:53;5.10;;;1.90;;
8480;SDS011;4277;51.354;6.740;2022-09-09T05:36:19;9.77;;;1.90;;
8480;SDS011;4277;51.354;6.740;2022-09-09T05:38:46;5.80;;;1.97;;
8480;SDS011;4277;51.354;6.740;2022-09-09T05:41:12;8.10;;;1.77;;
8480;SDS011;4277;51.354;6.740;2022-09-09T05:43:42;7.23;;;1.93;;
8480;SDS011;4277;51.354;6.740;2022-09-09T05:46:18;7.63;;;2.10;;
8480;SDS011;4277;51.354;6.740;2022-09-09T05:48:45;7.13;;;1.90;;
8480;SDS011;4277;51.354;6.740;2022-09-09T05:51:12;5.70;;;1.73;;
8480;SDS011;4277;51.354;6.740;2022-09-09T05:53:40;4.77;;;1.53;;
8480;SDS011;4277;51.354;6.740;2022-09-09T05:56:16;4.27;;;1.70;;
8480;SDS011;4277;51.354;6.740;2022-09-09T05:58:46;5.70;;;1.80;;
8480;SDS011;4277;51.354;6.740;2022-09-09T06:01:14;5.33;;;1.90;;
8480;SDS011;4277;51.354;6.740;2022-09-09T06:03:41;6.20;;;2.40;;
8480;SDS011;4277;51.354;6.740;2022-09-09T06:06:08;5.17;;;1.60;;
8480;SDS011;4277;51.354;6.740;2022-09-09T06:08:35;7.83;;;2.30;;
8480;SDS011;4277;51.354;6.740;2022-09-09T06:11:05;7.23;;;2.10;;
8480;SDS011;4277;51.354;6.740;2022-09-09T06:13:32;5.13;;;1.70;;
8480;SDS011;4277;51.354;6.740;2022-09-09T06:15:58;5.00;;;1.80;;
8480;SDS011;4277;51.354;6.740;2022-09-09T06:18:25;4.50;;;1.53;;
8480;SDS011;4277;51.354;6.740;2022-09-09T06:20:54;7.47;;;1.93;;
8480;SDS011;4277;51.354;6.740;2022-09-09T06:23:20;5.80;;;1.77;;
8480;SDS011;4277;51.354;6.740;2022-09-09T06:25:46;7.23;;;1.90;;
8480;SDS011;4277;51.354;6.740;2022-09-09T06:28:14;6.90;;;2.20;;
8480;SDS011;4277;51.354;6.740;2022-09-09T06:30:40;5.90;;;1.70;;
8480;SDS011;4277;51.354;6.740;2022-09-09T06:33:06;4.13;;;1.70;;
8480;SDS011;4277;51.354;6.740;2022-09-09T06:35:32;8.37;;;1.90;;
8480;SDS011;4277;51.354;6.740;2022-09-09T06:37:58;4.33;;;1.60;;
8480;SDS011;4277;51.354;6.740;2022-09-09T06:40:24;7.07;;;1.60;;
8480;SDS011;4277;51.354;6.740;2022-09-09T06:42:50;5.80;;;1.80;;
8480;SDS011;4277;51.354;6.740;2022-09-09T06:45:16;5.70;;;1.83;;
8480;SDS011;4277;51.354;6.740;2022-09-09T06:47:42;5.50;;;1.87;;
8480;SDS011;4277;51.354;6.740;2022-09-09T06:50:08;5.30;;;1.77;;
8480;SDS011;4277;51.354;6.740;2022-09-09T06:52:36;6.60;;;1.88;;
8480;SDS011;4277;51.354;6.740;2022-09-09T06:55:02;4.33;;;1.50;;
8480;SDS011;4277;51.354;6.740;2022-09-09T06:57:43;4.57;;;1.80;;
8480;SDS011;4277;51.354;6.740;2022-09-09T07:00:09;6.63;;;1.87;;
8480;SDS011;4277;51.354;6.740;2022-09-09T07:02:36;7.10;;;1.60;;
8480;SDS011;4277;51.354;6.740;2022-09-09T07:05:04;8.40;;;1.92;;
8480;SDS011;4277;51.354;6.740;2022-09-09T07:07:30;4.90;;;1.57;;
8480;SDS011;4277;51.354;6.740;2022-09-09T07:09:56;5.67;;;1.73;;
8480;SDS011;4277;51.354;6.740;2022-09-09T07:12:22;4.57;;;1.80;;
8480;SDS011;4277;51.354;6.740;2022-09-09T07:14:48;5.63;;;1.63;;
8480;SDS011;4277;51.354;6.740;2022-09-09T07:17:14;5.17;;;1.53;;
8480;SDS011;4277;51.354;6.740;2022-09-09T07:19:40;6.57;;;1.60;;
8480;SDS011;4277;51.354;6.740;2022-09-09T07:22:07;4.93;;;1.43;;
8480;SDS011;4277;51.354;6.740;2022-09-09T07:24:34;6.73;;;1.70;;
8480;SDS011;4277;51.354;6.740;2022-09-09T07:27:00;5.43;;;1.60;;
8480;SDS011;4277;51.354;6.740;2022-09-09T07:29:26;7.57;;;1.57;;
8480;SDS011;4277;51.354;6.740;2022-09-09T07:31:52;3.50;;;1.47;;
8480;SDS011;4277;51.354;6.740;2022-09-09T07:34:18;5.33;;;1.60;;
8480;SDS011;4277;51.354;6.740;2022-09-09T07:36:44;6.57;;;1.97;;
8480;SDS011;4277;51.354;6.740;2022-09-09T07:39:12;5.20;;;1.37;;
8480;SDS011;4277;51.354;6.740;2022-09-09T07:41:40;5.47;;;1.37;;
8480;SDS011;4277;51.354;6.740;2022-09-09T07:44:10;7.73;;;1.70;;
8480;SDS011;4277;51.354;6.740;2022-09-09T07:46:36;5.03;;;1.20;;
8480;SDS011;4277;51.354;6.740;2022-09-09T07:49:04;5.13;;;1.50;;
8480;SDS011;4277;51.354;6.740;2022-09-09T07:51:33;5.87;;;1.50;;
8480;SDS011;4277;51.354;6.740;2022-09-09T07:54:00;3.77;;;1.53;;
8480;SDS011;4277;51.354;6.740;2022-09-09T07:56:29;5.23;;;1.33;;
8480;SDS011;4277;51.354;6.740;2022-09-09T07:58:56;8.57;;;1.65;;
8480;SDS011;4277;51.354;6.740;2022-09-09T08:04:08;6.03;;;1.48;;
8480;SDS011;4277;51.354;6.740;2022-09-09T08:06:36;6.75;;;1.58;;
8480;SDS011;4277;51.354;6.740;2022-09-09T08:09:03;5.07;;;1.57;;
8480;SDS011;4277;51.354;6.740;2022-09-09T08:11:34;5.13;;;1.40;;
8480;SDS011;4277;51.354;6.740;2022-09-09T08:14:01;4.00;;;1.25;;
8480;SDS011;4277;51.354;6.740;2022-09-09T08:16:31;4.20;;;1.43;;
8480;SDS011;4277;51.354;6.740;2022-09-09T08:18:57;3.70;;;1.27;;
8480;SDS011;4277;51.354;6.740;2022-09-09T08:21:25;6.05;;;1.38;;
8480;SDS011;4277;51.354;6.740;2022-09-09T08:23:53;6.93;;;1.55;;
8480;SDS011;4277;51.354;6.740;2022-09-09T08:26:20;3.92;;;1.33;;
8480;SDS011;4277;51.354;6.740;2022-09-09T08:28:47;5.20;;;1.85;;
8480;SDS011;4277;51.354;6.740;2022-09-09T08:31:16;3.53;;;1.60;;
8480;SDS011;4277;51.354;6.740;2022-09-09T08:33:43;5.68;;;1.40;;
8480;SDS011;4277;51.354;6.740;2022-09-09T08:36:12;7.32;;;1.63;;
8480;SDS011;4277;51.354;6.740;2022-09-09T08:38:38;3.78;;;1.35;;
8480;SDS011;4277;51.354;6.740;2022-09-09T08:41:38;3.85;;;1.20;;
8480;SDS011;4277;51.354;6.740;2022-09-09T08:46:47;5.03;;;1.10;;
8480;SDS011;4277;51.354;6.740;2022-09-09T08:51:43;4.95;;;1.48;;
8480;SDS011;4277;51.354;6.740;2022-09-09T08:54:09;3.90;;;1.20;;
8480;SDS011;4277;51.354;6.740;2022-09-09T08:56:41;3.60;;;1.10;;
8480;SDS011;4277;51.354;6.740;2022-09-09T08:59:09;3.67;;;1.33;;
8480;SDS011;4277;51.354;6.740;2022-09-09T09:01:44;5.40;;;1.20;;
8480;SDS011;4277;51.354;6.740;2022-09-09T09:04:20;4.53;;;1.10;;
8480;SDS011;4277;51.354;6.740;2022-09-09T09:09:29;3.45;;;1.40;;
8480;SDS011;4277;51.354;6.740;2022-09-09T09:11:58;3.40;;;1.15;;
8480;SDS011;4277;51.354;6.740;2022-09-09T09:14:29;3.70;;;1.10;;
8480;SDS011;4277;51.354;6.740;2022-09-09T09:17:32;4.00;;;1.20;;
8480;SDS011;4277;51.354;6.740;2022-09-09T09:19:57;6.30;;;1.25;;
8480;SDS011;4277;51.354;6.740;2022-09-09T09:25:05;3.45;;;1.10;;
8480;SDS011;4277;51.354;6.740;2022-09-09T09:30:20;5.40;;;1.65;;
8480;SDS011;4277;51.354;6.740;2022-09-09T09:32:53;2.45;;;1.17;;
8480;SDS011;4277;51.354;6.740;2022-09-09T09:35:19;3.83;;;1.10;;
8480;SDS011;4277;51.354;6.740;2022-09-09T09:37:46;2.22;;;0.98;;
8480;SDS011;4277;51.354;6.740;2022-09-09T09:40:14;4.15;;;1.10;;
8480;SDS011;4277;51.354;6.740;2022-09-09T09:45:29;5.35;;;1.42;;
8480;SDS011;4277;51.354;6.740;2022-09-09T09:48:00;2.78;;;1.20;;
8480;SDS011;4277;51.354;6.740;2022-09-09T09:50:33;3.92;;;1.00;;
8480;SDS011;4277;51.354;6.740;2022-09-09T09:53:01;4.38;;;1.08;;
8480;SDS011;4277;51.354;6.740;2022-09-09T09:55:28;3.25;;;1.10;;
8480;SDS011;4277;51.354;6.740;2022-09-09T09:58:05;4.05;;;1.10;;
8480;SDS011;4277;51.354;6.740;2022-09-09T10:00:32;2.92;;;0.95;;
8480;SDS011;4277;51.354;6.740;2022-09-09T10:03:02;5.78;;;1.02;;
8480;SDS011;4277;51.354;6.740;2022-09-09T10:05:38;4.40;;;1.10;;
8480;SDS011;4277;51.354;6.740;2022-09-09T10:08:11;4.05;;;1.02;;
8480;SDS011;4277;51.354;6.740;2022-09-09T10:15:55;2.47;;;0.90;;
8480;SDS011;4277;51.354;6.740;2022-09-09T10:18:44;3.22;;;1.00;;
8480;SDS011;4277;51.354;6.740;2022-09-09T10:24:00;3.55;;;1.02;;
8480;SDS011;4277;51.354;6.740;2022-09-09T10:29:18;2.67;;;1.13;;
8480;SDS011;4277;51.354;6.740;2022-09-09T10:32:48;3.72;;;1.17;;
8480;SDS011;4277;51.354;6.740;2022-09-09T10:40:27;3.75;;;0.93;;
8480;SDS011;4277;51.354;6.740;2022-09-09T10:42:50;2.53;;;0.95;;
8480;SDS011;4277;51.354;6.740;2022-09-09T10:45:18;4.65;;;1.08;;
8480;SDS011;4277;51.354;6.740;2022-09-09T10:48:08;4.00;;;1.02;;
8480;SDS011;4277;51.354;6.740;2022-09-09T10:55:59;3.53;;;0.80;;
8480;SDS011;4277;51.354;6.740;2022-09-09T10:58:30;3.80;;;0.90;;
8480;SDS011;4277;51.354;6.740;2022-09-09T11:01:00;1.83;;;0.75;;
8480;SDS011;4277;51.354;6.740;2022-09-09T11:03:28;2.35;;;0.77;;
8480;SDS011;4277;51.354;6.740;2022-09-09T11:06:00;2.05;;;0.90;;
8480;SDS011;4277;51.354;6.740;2022-09-09T11:08:28;2.75;;;0.82;;
8480;SDS011;4277;51.354;6.740;2022-09-09T11:16:03;2.38;;;0.90;;
8480;SDS011;4277;51.354;6.740;2022-09-09T11:18:29;2.13;;;0.73;;
8480;SDS011;4277;51.354;6.740;2022-09-09T11:20:58;2.30;;;0.75;;
8480;SDS011;4277;51.354;6.740;2022-09-09T11:23:27;4.25;;;1.05;;
8480;SDS011;4277;51.354;6.740;2022-09-09T11:25:58;4.07;;;0.90;;
8480;SDS011;4277;51.354;6.740;2022-09-09T11:31:36;2.15;;;0.77;;
8480;SDS011;4277;51.354;6.740;2022-09-09T11:34:20;2.22;;;0.60;;
8480;SDS011;4277;51.354;6.740;2022-09-09T11:44:39;2.55;;;0.80;;
8480;SDS011;4277;51.354;6.740;2022-09-09T11:47:16;3.30;;;0.75;;
8480;SDS011;4277;51.354;6.740;2022-09-09T11:49:44;3.08;;;0.88;;
8480;SDS011;4277;51.354;6.740;2022-09-09T11:52:11;2.08;;;0.70;;
8480;SDS011;4277;51.354;6.740;2022-09-09T11:54:44;1.65;;;0.65;;
8480;SDS011;4277;51.354;6.740;2022-09-09T11:59:56;4.45;;;1.00;;
8480;SDS011;4277;51.354;6.740;2022-09-09T12:02:27;2.20;;;0.75;;
8480;SDS011;4277;51.354;6.740;2022-09-09T12:05:01;3.42;;;0.77;;
8480;SDS011;4277;51.354;6.740;2022-09-09T12:07:51;4.68;;;0.80;;
8480;SDS011;4277;51.354;6.740;2022-09-09T12:12:44;2.38;;;0.77;;
8480;SDS011;4277;51.354;6.740;2022-09-09T12:17:47;4.22;;;0.80;;
8480;SDS011;4277;51.354;6.740;2022-09-09T12:20:17;4.68;;;0.98;;
8480;SDS011;4277;51.354;6.740;2022-09-09T12:25:16;1.17;;;0.60;;
8480;SDS011;4277;51.354;6.740;2022-09-09T12:30:31;1.38;;;0.60;;
8480;SDS011;4277;51.354;6.740;2022-09-09T12:33:02;2.08;;;0.55;;
8480;SDS011;4277;51.354;6.740;2022-09-09T12:35:28;1.92;;;0.77;;
8480;SDS011;4277;51.354;6.740;2022-09-09T12:37:57;4.43;;;1.00;;
8480;SDS011;4277;51.354;6.740;2022-09-09T12:40:31;1.98;;;0.77;;
8480;SDS011;4277;51.354;6.740;2022-09-09T12:43:00;4.45;;;1.00;;
8480;SDS011;4277;51.354;6.740;2022-09-09T12:45:27;2.78;;;1.23;;
8480;SDS011;4277;51.354;6.740;2022-09-09T12:48:08;4.35;;;1.23;;
8480;SDS011;4277;51.354;6.740;2022-09-09T12:50:36;2.22;;;1.10;;
8480;SDS011;4277;51.354;6.740;2022-09-09T12:53:07;6.22;;;1.17;;
8480;SDS011;4277;51.354;6.740;2022-09-09T12:55:35;3.10;;;1.08;;
8480;SDS011;4277;51.354;6.740;2022-09-09T12:58:02;7.70;;;1.70;;
8480;SDS011;4277;51.354;6.740;2022-09-09T13:00:30;6.00;;;1.52;;
8480;SDS011;4277;51.354;6.740;2022-09-09T13:02:57;3.33;;;1.10;;
8480;SDS011;4277;51.354;6.740;2022-09-09T13:05:34;2.95;;;1.23;;
8480;SDS011;4277;51.354;6.740;2022-09-09T13:08:04;5.45;;;1.33;;
8480;SDS011;4277;51.354;6.740;2022-09-09T13:10:47;5.20;;;1.20;;
8480;SDS011;4277;51.354;6.740;2022-09-09T13:13:19;3.92;;;1.20;;
8480;SDS011;4277;51.354;6.740;2022-09-09T13:15:50;5.13;;;1.05;;
8480;SDS011;4277;51.354;6.740;2022-09-09T13:18:16;2.85;;;1.08;;
8480;SDS011;4277;51.354;6.740;2022-09-09T13:20:48;3.03;;;1.10;;
8480;SDS011;4277;51.354;6.740;2022-09-09T13:23:14;1.95;;;0.98;;
8480;SDS011;4277;51.354;6.740;2022-09-09T13:25:40;3.78;;;1.08;;
8480;SDS011;4277;51.354;6.740;2022-09-09T13:28:18;2.00;;;0.88;;
8480;SDS011;4277;51.354;6.740;2022-09-09T13:30:54;3.45;;;1.20;;
8480;SDS011;4277;51.354;6.740;2022-09-09T13:33:24;1.83;;;0.80;;
8480;SDS011;4277;51.354;6.740;2022-09-09T13:35:55;4.00;;;0.90;;
8480;SDS011;4277;51.354;6.740;2022-09-09T13:38:21;1.42;;;0.70;;
8480;SDS011;4277;51.354;6.740;2022-09-09T13:40:58;2.15;;;0.90;;
8480;SDS011;4277;51.354;6.740;2022-09-09T13:43:26;1.88;;;0.77;;
8480;SDS011;4277;51.354;6.740;2022-09-09T13:45:57;2.97;;;1.00;;
8480;SDS011;4277;51.354;6.740;2022-09-09T13:48:23;1.85;;;0.77;;
8480;SDS011;4277;51.354;6.740;2022-09-09T13:51:21;2.42;;;0.80;;
8480;SDS011;4277;51.354;6.740;2022-09-09T13:53:39;3.15;;;0.70;;
8480;SDS011;4277;51.354;6.740;2022-09-09T13:56:05;3.90;;;1.30;;
8480;SDS011;4277;51.354;6.740;2022-09-09T13:58:31;2.22;;;0.80;;
8480;SDS011;4277;51.354;6.740;2022-09-09T14:00:57;3.45;;;0.90;;
8480;SDS011;4277;51.354;6.740;2022-09-09T14:03:23;3.15;;;1.08;;
8480;SDS011;4277;51.354;6.740;2022-09-09T14:05:49;2.33;;;1.00;;
8480;SDS011;4277;51.354;6.740;2022-09-09T14:08:19;2.25;;;0.90;;
8480;SDS011;4277;51.354;6.740;2022-09-09T14:10:46;3.65;;;1.13;;
8480;SDS011;4277;51.354;6.740;2022-09-09T14:13:12;2.75;;;1.00;;
8480;SDS011;4277;51.354;6.740;2022-09-09T14:15:39;3.03;;;1.02;;
8480;SDS011;4277;51.354;6.740;2022-09-09T14:18:05;1.67;;;0.75;;
8480;SDS011;4277;51.354;6.740;2022-09-09T14:20:37;1.42;;;0.80;;
8480;SDS011;4277;51.354;6.740;2022-09-09T14:23:03;2.72;;;1.20;;
8480;SDS011;4277;51.354;6.740;2022-09-09T14:25:44;2.97;;;0.90;;
8480;SDS011;4277;51.354;6.740;2022-09-09T14:28:12;2.50;;;0.80;;
8480;SDS011;4277;51.354;6.740;2022-09-09T14:30:39;2.70;;;1.00;;
8480;SDS011;4277;51.354;6.740;2022-09-09T14:33:05;3.33;;;0.90;;
8480;SDS011;4277;51.354;6.740;2022-09-09T14:35:37;0.60;;;0.40;;
8480;SDS011;4277;51.354;6.740;2022-09-09T14:38:05;0.75;;;0.30;;
8480;SDS011;4277;51.354;6.740;2022-09-09T14:40:31;1.30;;;0.50;;
8480;SDS011;4277;51.354;6.740;2022-09-09T14:42:57;1.23;;;0.30;;
8480;SDS011;4277;51.354;6.740;2022-09-09T14:45:25;1.80;;;0.50;;
8480;SDS011;4277;51.354;6.740;2022-09-09T14:47:51;1.55;;;0.63;;
8480;SDS011;4277;51.354;6.740;2022-09-09T14:50:18;3.13;;;0.95;;
8480;SDS011;4277;51.354;6.740;2022-09-09T14:52:44;3.33;;;0.68;;
8480;SDS011;4277;51.354;6.740;2022-09-09T14:55:10;1.42;;;0.80;;
8480;SDS011;4277;51.354;6.740;2022-09-09T14:57:36;2.55;;;0.60;;
8480;SDS011;4277;51.354;6.740;2022-09-09T15:00:04;2.17;;;0.50;;
8480;SDS011;4277;51.354;6.740;2022-09-09T15:02:30;0.93;;;0.45;;
8480;SDS011;4277;51.354;6.740;2022-09-09T15:04:57;1.63;;;0.60;;
8480;SDS011;4277;51.354;6.740;2022-09-09T15:07:24;1.63;;;0.47;;
8480;SDS011;4277;51.354;6.740;2022-09-09T15:09:50;2.78;;;0.55;;
8480;SDS011;4277;51.354;6.740;2022-09-09T15:12:17;2.03;;;0.60;;
8480;SDS011;4277;51.354;6.740;2022-09-09T15:14:44;1.65;;;0.60;;
8480;SDS011;4277;51.354;6.740;2022-09-09T15:17:09;1.38;;;0.80;;
8480;SDS011;4277;51.354;6.740;2022-09-09T15:19:36;1.23;;;0.60;;
8480;SDS011;4277;51.354;6.740;2022-09-09T15:22:03;3.47;;;0.60;;
8480;SDS011;4277;51.354;6.740;2022-09-09T15:24:30;1.77;;;0.70;;
8480;SDS011;4277;51.354;6.740;2022-09-09T15:26:56;2.30;;;0.70;;
8480;SDS011;4277;51.354;6.740;2022-09-09T15:29:22;2.78;;;0.60;;
8480;SDS011;4277;51.354;6.740;2022-09-09T15:31:48;1.75;;;0.50;;
8480;SDS011;4277;51.354;6.740;2022-09-09T15:34:14;1.75;;;0.50;;
8480;SDS011;4277;51.354;6.740;2022-09-09T15:36:42;1.17;;;0.60;;
8480;SDS011;4277;51.354;6.740;2022-09-09T15:39:09;2.25;;;0.45;;
8480;SDS011;4277;51.354;6.740;2022-09-09T15:41:37;1.75;;;0.45;;
8480;SDS011;4277;51.354;6.740;2022-09-09T15:44:04;2.42;;;0.75;;
8480;SDS011;4277;51.354;6.740;2022-09-09T15:51:29;0.68;;;0.43;;
8480;SDS011;4277;51.354;6.740;2022-09-09T15:53:55;1.20;;;0.40;;
8480;SDS011;4277;51.354;6.740;2022-09-09T15:56:22;1.20;;;0.50;;
8480;SDS011;4277;51.354;6.740;2022-09-09T15:58:48;1.20;;;0.50;;
8480;SDS011;4277;51.354;6.740;2022-09-09T16:01:14;1.33;;;0.40;;
8480;SDS011;4277;51.354;6.740;2022-09-09T16:03:42;1.10;;;0.70;;
8480;SDS011;4277;51.354;6.740;2022-09-09T16:06:11;1.42;;;0.52;;
8480;SDS011;4277;51.354;6.740;2022-09-09T16:08:38;0.98;;;0.50;;
8480;SDS011;4277;51.354;6.740;2022-09-09T16:11:05;2.47;;;0.60;;
8480;SDS011;4277;51.354;6.740;2022-09-09T16:13:47;1.90;;;0.77;;
8480;SDS011;4277;51.354;6.740;2022-09-09T16:16:16;2.85;;;0.90;;
8480;SDS011;4277;51.354;6.740;2022-09-09T16:18:51;1.05;;;0.80;;
8480;SDS011;4277;51.354;6.740;2022-09-09T16:23:44;2.63;;;0.63;;
8480;SDS011;4277;51.354;6.740;2022-09-09T16:26:10;3.17;;;0.90;;
8480;SDS011;4277;51.354;6.740;2022-09-09T16:28:37;2.20;;;0.70;;
8480;SDS011;4277;51.354;6.740;2022-09-09T16:31:05;3.95;;;0.82;;
8480;SDS011;4277;51.354;6.740;2022-09-09T16:33:31;1.38;;;0.80;;
8480;SDS011;4277;51.354;6.740;2022-09-09T16:35:57;3.72;;;1.05;;
8480;SDS011;4277;51.354;6.740;2022-09-09T16:38:23;1.70;;;1.08;;
8480;SDS011;4277;51.354;6.740;2022-09-09T16:40:49;2.63;;;1.20;;
8480;SDS011;4277;51.354;6.740;2022-09-09T16:43:15;1.83;;;1.00;;
8480;SDS011;4277;51.354;6.740;2022-09-09T16:45:42;3.20;;;1.20;;
8480;SDS011;4277;51.354;6.740;2022-09-09T16:48:08;3.45;;;1.17;;
8480;SDS011;4277;51.354;6.740;2022-09-09T16:50:34;3.15;;;1.05;;
8480;SDS011;4277;51.354;6.740;2022-09-09T16:53:00;3.42;;;1.25;;
8480;SDS011;4277;51.354;6.740;2022-09-09T16:55:31;4.55;;;1.42;;
8480;SDS011;4277;51.354;6.740;2022-09-09T16:57:57;3.75;;;1.80;;
8480;SDS011;4277;51.354;6.740;2022-09-09T17:00:23;5.50;;;2.40;;
8480;SDS011;4277;51.354;6.740;2022-09-09T17:02:49;4.35;;;2.03;;
8480;SDS011;4277;51.354;6.740;2022-09-09T17:05:15;3.38;;;1.80;;
8480;SDS011;4277;51.354;6.740;2022-09-09T17:07:41;3.88;;;1.63;;
8480;SDS011;4277;51.354;6.740;2022-09-09T17:10:08;3.22;;;1.80;;
8480;SDS011;4277;51.354;6.740;2022-09-09T17:12:34;2.97;;;1.60;;
8480;SDS011;4277;51.354;6.740;2022-09-09T17:15:00;4.13;;;1.63;;
8480;SDS011;4277;51.354;6.740;2022-09-09T17:17:28;4.22;;;1.65;;
8480;SDS011;4277;51.354;6.740;2022-09-09T17:19:54;3.60;;;1.73;;
8480;SDS011;4277;51.354;6.740;2022-09-09T17:22:21;6.28;;;1.88;;
8480;SDS011;4277;51.354;6.740;2022-09-09T17:24:48;3.58;;;1.83;;
8480;SDS011;4277;51.354;6.740;2022-09-09T17:27:14;3.30;;;1.75;;
8480;SDS011;4277;51.354;6.740;2022-09-09T17:29:40;4.25;;;1.70;;
8480;SDS011;4277;51.354;6.740;2022-09-09T17:32:06;4.25;;;1.60;;
8480;SDS011;4277;51.354;6.740;2022-09-09T17:34:35;4.20;;;1.95;;